Time;durP1;ratioP1;P1;durP2;ratioP2;P2;SDS_P1;SDS_P2;PMS_P1;PMS_P2;Temp;Humidity;BMP_temperature;BMP_pressure;BME280_temperature;BME280_humidity;BME280_pressure;Samples;Min_cycle;Max_cycle;Signal;HPM_P1;HPM_P2
2021/07/13 00:00:17;;;;;;;;;;;;;;;22.33;53.79;94866.38;1045916;28;1025;-78
2021/07/13 00:00:47;;;;;;;;;;;;;;;22.32;53.76;94867.44;1040362;28;1488;-78
2021/07/13 00:01:17;;;;;;;;;;;;;;;22.33;53.62;94868.22;1036964;28;1303;-78
2021/07/13 00:01:48;;;;;;;;;;;;;;;22.33;53.79;94863.72;1038059;28;1053;-77
2021/07/13 00:02:18;;;;;;;;;;;;;;;22.34;53.78;94854.72;1045829;28;850;-79
2021/07/13 00:02:48;;;;;;;;;;;;;;;22.33;53.55;94863.72;1046673;28;1194;-78
2021/07/13 00:03:18;;;;;;;;;;;;;;;22.34;53.51;94860.00;1045325;28;1369;-77
2021/07/13 00:03:49;;;;;;;;;;;;;;;22.35;53.47;94872.13;1045532;28;1910;-78
2021/07/13 00:04:19;;;;;;;;;;;;;;;22.35;53.81;94856.28;1044563;28;2511;-78
2021/07/13 00:04:50;;;;;;;;;;;;;;;22.35;53.80;94856.28;1042532;28;2556;-78
2021/07/13 00:05:20;;;;;;;;;;;;;;;22.35;53.62;94860.78;1046071;28;1343;-78
2021/07/13 00:05:50;;;;;;;;;;;;;;;22.34;53.83;94860.00;1045273;28;1100;-77
2021/07/13 00:06:21;;;;;;;;;;;;;;;22.34;53.67;94854.72;1045647;28;1032;-78
2021/07/13 00:06:51;;;;;;;;;;;;;;;22.34;53.74;94860.00;1045829;28;1190;-78
2021/07/13 00:07:22;;;;;;;;;;;;;;;22.35;53.84;94856.28;1043517;28;1448;-78
2021/07/13 00:07:53;;;;;;;;;;;;;;;22.35;53.97;94861.56;1039039;28;1370;-78
2021/07/13 00:08:23;;;;;;;;;;;;;;;22.35;53.51;94858.13;1036034;28;1279;-79
2021/07/13 00:08:53;;;;;;;;;;;;;;;22.35;53.65;94856.28;1036534;28;1519;-78
2021/07/13 00:09:24;;;;;;;;;;;;;;;22.34;53.62;94860.00;1041135;28;1207;-77
2021/07/13 00:09:54;;;;;;;;;;;;;;;22.35;53.62;94855.50;1042609;28;2200;-77
2021/07/13 00:10:26;;;;;;;;;;;;;;;22.35;53.75;94856.28;1045228;28;1330;-76
2021/07/13 00:10:56;;;;;;;;;;;;;;;22.35;53.70;94855.50;1044391;28;1187;-77
2021/07/13 00:11:27;;;;;;;;;;;;;;;22.34;53.67;94854.72;1040952;28;1168;-77
2021/07/13 00:11:58;;;;;;;;;;;;;;;22.35;53.73;94853.63;1036865;28;1371;-76
2021/07/13 00:12:29;;;;;;;;;;;;;;;22.35;53.69;94855.50;1036630;28;1226;-77
2021/07/13 00:12:59;;;;;;;;;;;;;;;22.35;53.63;94852.84;1037143;28;1173;-76
2021/07/13 00:13:29;;;;;;;;;;;;;;;22.35;53.89;94856.28;1040886;28;1120;-77
2021/07/13 00:13:59;;;;;;;;;;;;;;;22.35;54.01;94852.84;1042330;28;1509;-76
2021/07/13 00:14:30;;;;;;;;;;;;;;;22.35;53.91;94860.78;1040989;28;722;-77
2021/07/13 00:15:00;;;;;;;;;;;;;;;22.34;54.00;94846.78;1036985;28;2295;-77
2021/07/13 00:15:33;;;;;;;;;;;;;;;22.34;53.97;94846.78;1037214;28;745;-77
2021/07/13 00:16:03;;;;;;;;;;;;;;;22.36;53.80;94857.81;1044679;28;1203;-77
2021/07/13 00:16:33;;;;;;;;;;;;;;;22.36;53.82;94854.41;1040294;28;1629;-75
2021/07/13 00:17:06;;;;;;;;;;;;;;;22.35;53.80;94845.72;1038519;28;967;-76
2021/07/13 00:17:36;;;;;;;;;;;;;;;22.35;54.02;94851.00;1034720;28;2050;-77
2021/07/13 00:18:06;;;;;;;;;;;;;;;22.36;53.71;94846.50;1032611;28;1164;-76
2021/07/13 00:18:37;;;;;;;;;;;;;;;22.36;53.82;94844.63;1036928;28;823;-76
2021/07/13 00:19:07;;;;;;;;;;;;;;;22.35;53.82;94843.06;1039874;28;1196;-77
2021/07/13 00:19:38;;;;;;;;;;;;;;;22.36;53.78;94844.63;1040111;28;2034;-77
2021/07/13 00:20:08;;;;;;;;;;;;;;;22.36;53.74;94841.22;1039917;28;2649;-77
2021/07/13 00:20:38;;;;;;;;;;;;;;;22.36;53.74;94841.97;1039983;28;2674;-77
2021/07/13 00:21:09;;;;;;;;;;;;;;;22.37;53.66;94838.25;1037868;28;1194;-77
2021/07/13 00:21:39;;;;;;;;;;;;;;;22.35;54.08;94840.44;1041107;28;787;-77
2021/07/13 00:22:09;;;;;;;;;;;;;;;22.36;53.93;94841.22;1043658;28;2660;-77
2021/07/13 00:22:40;;;;;;;;;;;;;;;22.36;53.91;94834.06;1044180;28;2719;-77
2021/07/13 00:23:10;;;;;;;;;;;;;;;22.37;53.88;94840.91;1044462;28;1334;-77
2021/07/13 00:23:40;;;;;;;;;;;;;;;22.36;53.74;94841.22;1041143;28;1910;-77
2021/07/13 00:24:11;;;;;;;;;;;;;;;22.37;54.10;94838.25;1038588;28;1125;-77
2021/07/13 00:24:41;;;;;;;;;;;;;;;22.37;53.95;94838.25;1030693;28;2256;-75
2021/07/13 00:25:12;;;;;;;;;;;;;;;22.37;53.80;94829.56;1036856;28;1980;-77
2021/07/13 00:25:42;;;;;;;;;;;;;;;22.37;53.94;94835.63;1037202;28;705;-77
2021/07/13 00:26:15;;;;;;;;;;;;;;;22.38;54.01;94837.16;1032370;28;1714;-78
2021/07/13 00:26:46;;;;;;;;;;;;;;;22.38;53.86;94834.53;1035050;28;1666;-77
2021/07/13 00:27:16;;;;;;;;;;;;;;;22.37;54.03;94832.97;1034831;28;1399;-78
2021/07/13 00:27:47;;;;;;;;;;;;;;;22.38;54.03;94831.13;1038676;28;1128;-78
2021/07/13 00:28:17;;;;;;;;;;;;;;;22.38;53.85;94834.53;1037047;28;1319;-78
2021/07/13 00:28:47;;;;;;;;;;;;;;;22.38;54.00;94831.88;1037988;28;1129;-79
2021/07/13 00:29:17;;;;;;;;;;;;;;;22.38;53.80;94834.53;1044942;28;1115;-78
2021/07/13 00:29:48;;;;;;;;;;;;;;;22.36;54.31;94834.06;1041554;28;1197;-79
2021/07/13 00:30:18;;;;;;;;;;;;;;;22.38;54.06;94826.59;1041821;28;2633;-78
2021/07/13 00:30:48;;;;;;;;;;;;;;;22.38;53.93;94823.22;1037492;28;1356;-78
2021/07/13 00:31:19;;;;;;;;;;;;;;;22.39;53.98;94832.66;1041029;28;1146;-78
2021/07/13 00:31:49;;;;;;;;;;;;;;;22.38;54.10;94826.59;1038269;28;1089;-78
2021/07/13 00:32:19;;;;;;;;;;;;;;;22.38;54.27;94829.25;1041348;28;870;-79
2021/07/13 00:32:50;;;;;;;;;;;;;;;22.38;54.14;94831.88;1038723;28;1337;-79
2021/07/13 00:33:20;;;;;;;;;;;;;;;22.37;53.93;94816.34;1037371;28;794;-78
2021/07/13 00:33:50;;;;;;;;;;;;;;;22.39;53.96;94824.75;1034322;28;1265;-79
2021/07/13 00:34:20;;;;;;;;;;;;;;;22.39;54.25;94822.09;1037514;28;1155;-78
2021/07/13 00:34:51;;;;;;;;;;;;;;;22.38;54.21;94816.03;1034950;28;1265;-78
2021/07/13 00:35:21;;;;;;;;;;;;;;;22.38;53.99;94820.56;1041706;28;2452;-78
2021/07/13 00:35:51;;;;;;;;;;;;;;;22.39;54.27;94822.09;1042832;28;2410;-78
2021/07/13 00:36:21;;;;;;;;;;;;;;;22.38;54.14;94818.69;1043507;28;1805;-76
2021/07/13 00:36:52;;;;;;;;;;;;;;;22.38;53.86;94813.41;1044546;28;923;-78
2021/07/13 00:37:22;;;;;;;;;;;;;;;22.38;54.32;94816.03;1040782;28;2369;-78
2021/07/13 00:37:52;;;;;;;;;;;;;;;22.39;54.24;94822.09;1042625;28;1128;-78
2021/07/13 00:38:23;;;;;;;;;;;;;;;22.39;53.96;94819.47;1044672;28;1119;-78
2021/07/13 00:38:53;;;;;;;;;;;;;;;22.39;54.08;94822.09;1039113;28;1236;-78
2021/07/13 00:39:23;;;;;;;;;;;;;;;22.39;53.87;94820.25;1037271;28;1211;-78
2021/07/13 00:39:54;;;;;;;;;;;;;;;22.40;54.28;94821.03;1036446;28;1552;-78
2021/07/13 00:40:24;;;;;;;;;;;;;;;22.39;54.17;94825.53;1032474;28;2315;-78
2021/07/13 00:40:54;;;;;;;;;;;;;;;22.40;54.20;94832.34;1037174;28;1029;-78
2021/07/13 00:41:24;;;;;;;;;;;;;;;22.40;54.38;94823.69;1041367;28;1645;-78
2021/07/13 00:41:55;;;;;;;;;;;;;;;22.40;53.98;94827.06;1040967;28;1612;-78
2021/07/13 00:42:25;;;;;;;;;;;;;;;22.39;54.31;94828.16;1044109;28;1258;-75
2021/07/13 00:42:55;;;;;;;;;;;;;;;22.39;54.35;94822.91;1039852;28;1390;-78
2021/07/13 00:43:25;;;;;;;;;;;;;;;22.39;54.12;94825.53;1041233;28;1206;-79
2021/07/13 00:43:56;;;;;;;;;;;;;;;22.39;54.36;94822.91;1043569;28;1969;-78
2021/07/13 00:44:26;;;;;;;;;;;;;;;22.38;54.07;94823.97;1041736;28;1029;-79
2021/07/13 00:44:57;;;;;;;;;;;;;;;22.41;54.37;94822.56;1037204;28;1185;-79
2021/07/13 00:45:28;;;;;;;;;;;;;;;22.39;54.04;94817.63;1031214;28;2287;-79
2021/07/13 00:45:58;;;;;;;;;;;;;;;22.40;53.95;94818.41;1033077;28;1703;-78
2021/07/13 00:46:29;;;;;;;;;;;;;;;22.40;54.16;94811.22;1035948;28;1962;-78
2021/07/13 00:46:59;;;;;;;;;;;;;;;22.40;54.12;94811.22;1035791;28;1301;-78
2021/07/13 00:47:29;;;;;;;;;;;;;;;22.40;54.28;94808.59;1029505;28;1117;-78
2021/07/13 00:47:59;;;;;;;;;;;;;;;22.41;54.11;94818.09;1031656;28;1102;-78
2021/07/13 00:48:30;;;;;;;;;;;;;;;22.40;54.27;94811.22;1039178;28;1315;-79
2021/07/13 00:49:03;;;;;;;;;;;;;;;22.39;54.38;94814.97;1033751;28;1228;-76
2021/07/13 00:49:33;;;;;;;;;;;;;;;22.40;54.25;94805.94;1045253;28;1305;-79
2021/07/13 00:50:04;;;;;;;;;;;;;;;22.40;54.50;94816.50;1041639;28;1271;-78
2021/07/13 00:50:34;;;;;;;;;;;;;;;22.40;54.22;94815.75;1038643;28;2298;-78
2021/07/13 00:51:05;;;;;;;;;;;;;;;22.40;54.16;94813.13;1041451;28;1247;-78
2021/07/13 00:51:35;;;;;;;;;;;;;;;22.39;54.58;94817.63;1037471;28;1298;-79
2021/07/13 00:52:06;;;;;;;;;;;;;;;22.39;54.36;94814.97;1033035;28;1377;-79
2021/07/13 00:52:36;;;;;;;;;;;;;;;22.38;54.37;94813.41;1033575;28;1129;-79
2021/07/13 00:53:06;;;;;;;;;;;;;;;22.40;54.50;94810.47;1038778;28;1192;-78
2021/07/13 00:53:37;;;;;;;;;;;;;;;22.38;54.30;94805.47;1044541;28;1134;-79
2021/07/13 00:54:08;;;;;;;;;;;;;;;22.39;54.41;94809.69;1045627;28;1257;-79
2021/07/13 00:54:39;;;;;;;;;;;;;;;22.41;54.56;94819.94;1045851;28;757;-78
2021/07/13 00:55:10;;;;;;;;;;;;;;;22.41;54.30;94804.09;1035628;28;1239;-79
2021/07/13 00:55:40;;;;;;;;;;;;;;;22.40;54.31;94808.59;1033304;28;2143;-79
2021/07/13 00:56:10;;;;;;;;;;;;;;;22.40;54.44;94808.59;1041003;28;1171;-79
2021/07/13 00:56:41;;;;;;;;;;;;;;;22.40;54.30;94802.56;1041599;28;1245;-79
2021/07/13 00:57:11;;;;;;;;;;;;;;;22.41;54.23;94804.09;1036582;28;1224;-79
2021/07/13 00:57:41;;;;;;;;;;;;;;;22.42;54.47;94797.75;1033196;28;766;-79
2021/07/13 00:58:12;;;;;;;;;;;;;;;22.42;54.26;94801.13;1037411;28;2384;-78
2021/07/13 00:58:42;;;;;;;;;;;;;;;22.42;54.49;94795.84;1037447;28;796;-79
2021/07/13 00:59:12;;;;;;;;;;;;;;;22.42;54.26;94800.38;1040991;28;1296;-79
2021/07/13 00:59:43;;;;;;;;;;;;;;;22.42;54.71;94806.41;1041129;28;1241;-79
2021/07/13 01:00:14;;;;;;;;;;;;;;;22.41;54.43;94796.97;1041476;28;1428;-78
2021/07/13 01:00:44;;;;;;;;;;;;;;;22.42;54.32;94803.03;1036075;28;2325;-78
2021/07/13 01:01:14;;;;;;;;;;;;;;;22.42;54.44;94803.03;1041591;28;1015;-78
2021/07/13 01:01:47;;;;;;;;;;;;;;;22.42;54.29;94801.13;1036888;28;1292;-78
2021/07/13 01:02:17;;;;;;;;;;;;;;;22.41;54.42;94802.25;1037718;28;1052;-78
2021/07/13 01:02:48;;;;;;;;;;;;;;;22.42;54.40;94798.50;1037816;28;1231;-79
2021/07/13 01:03:18;;;;;;;;;;;;;;;22.42;54.41;94798.50;1034134;28;2155;-79
2021/07/13 01:03:48;;;;;;;;;;;;;;;22.42;54.41;94800.38;1033985;28;2035;-78
2021/07/13 01:04:19;;;;;;;;;;;;;;;22.41;54.34;94801.44;1027436;28;2676;-78
2021/07/13 01:04:50;;;;;;;;;;;;;;;22.42;54.50;94792.47;1029229;28;1034;-78
2021/07/13 01:05:21;;;;;;;;;;;;;;;22.42;54.39;94795.09;1028462;28;1938;-78
2021/07/13 01:05:52;;;;;;;;;;;;;;;22.41;54.59;94802.25;1032391;28;2657;-78
2021/07/13 01:06:22;;;;;;;;;;;;;;;22.40;54.59;94795.38;1041537;28;792;-79
2021/07/13 01:07:00;;;;;;;;;;;;;;;22.42;54.47;94793.22;1040548;28;1140;-79
2021/07/13 01:07:34;;;;;;;;;;;;;;;22.42;54.63;94795.84;1033572;28;1133;-78
2021/07/13 01:08:13;;;;;;;;;;;;;;;22.42;54.34;94792.47;1032715;28;1208;-77
2021/07/13 01:08:51;;;;;;;;;;;;;;;22.42;54.36;94787.19;1033548;28;1498;-79
2021/07/13 01:09:45;;;;;;;;;;;;;;;22.43;54.63;94794.00;1038313;28;1201;-77
2021/07/13 01:10:28;;;;;;;;;;;;;;;22.43;54.31;94792.16;1029206;28;1261;-79
2021/07/13 01:11:17;;;;;;;;;;;;;;;22.43;54.46;94786.88;1037308;28;2102;-78
2021/07/13 01:11:49;;;;;;;;;;;;;;;22.43;54.53;94778.94;1036885;28;1235;-78
2021/07/13 01:12:27;;;;;;;;;;;;;;;22.43;54.53;94784.22;1033477;28;1232;-79
2021/07/13 01:13:05;;;;;;;;;;;;;;;22.43;54.42;94778.16;1029432;28;1118;-79
2021/07/13 01:13:56;;;;;;;;;;;;;;;22.43;54.50;94783.44;1025418;28;1233;-79
2021/07/13 01:14:44;;;;;;;;;;;;;;;22.41;54.58;94781.13;1029139;28;1144;-79
2021/07/13 01:15:15;;;;;;;;;;;;;;;22.43;54.79;94783.44;1038630;28;1264;-78
2021/07/13 01:15:47;;;;;;;;;;;;;;;22.42;54.50;94777.38;1037973;28;2386;-78
2021/07/13 01:16:17;;;;;;;;;;;;;;;22.43;54.61;94778.16;1041382;28;907;-78
2021/07/13 01:16:54;;;;;;;;;;;;;;;22.43;54.41;94776.31;1041316;28;1206;-79
2021/07/13 01:17:34;;;;;;;;;;;;;;;22.43;54.54;94771.03;1035910;28;1612;-79
2021/07/13 01:18:17;;;;;;;;;;;;;;;22.43;54.59;94771.03;1040994;28;1089;-79
2021/07/13 01:18:49;;;;;;;;;;;;;;;22.43;54.53;94772.88;1041460;28;1301;-78
2021/07/13 01:19:33;;;;;;;;;;;;;;;22.43;54.53;94778.16;1029818;28;1232;-79
2021/07/13 01:20:04;;;;;;;;;;;;;;;22.43;54.40;94776.31;1033573;28;1537;-79
2021/07/13 01:20:37;;;;;;;;;;;;;;;22.43;54.79;94781.59;1028876;28;2519;-77
2021/07/13 01:21:21;;;;;;;;;;;;;;;22.43;54.53;94776.31;1037200;28;1401;-79
2021/07/13 01:21:55;;;;;;;;;;;;;;;22.43;54.45;94778.16;1036054;28;1492;-78
2021/07/13 01:22:27;;;;;;;;;;;;;;;22.44;54.67;94782.38;1036756;28;1136;-79
2021/07/13 01:23:07;;;;;;;;;;;;;;;22.43;54.58;94783.44;1037914;28;1115;-79
2021/07/13 01:24:00;;;;;;;;;;;;;;;22.42;54.55;94782.66;1034798;28;2130;-79
2021/07/13 01:24:30;;;;;;;;;;;;;;;22.43;54.59;94781.59;1025240;28;1099;-79
2021/07/13 01:25:11;;;;;;;;;;;;;;;22.42;54.75;94773.97;1031453;28;1177;-79
2021/07/13 01:25:42;;;;;;;;;;;;;;;22.43;54.57;94778.16;1045200;28;2527;-79
2021/07/13 01:26:31;;;;;;;;;;;;;;;22.41;54.51;94775.84;1045216;28;1220;-79
2021/07/13 01:27:20;;;;;;;;;;;;;;;22.42;54.64;94777.38;1041721;28;1227;-79
2021/07/13 01:27:50;;;;;;;;;;;;;;;22.42;54.80;94779.25;1041829;28;2641;-77
2021/07/13 01:28:21;;;;;;;;;;;;;;;22.43;54.64;94788.72;1041126;28;2173;-79
2021/07/13 01:28:52;;;;;;;;;;;;;;;22.42;54.46;94780.00;1038013;28;1212;-78
2021/07/13 01:29:23;;;;;;;;;;;;;;;22.42;54.54;94790.56;1041326;28;844;-80
2021/07/13 01:29:54;;;;;;;;;;;;;;;22.42;54.64;94787.94;1037461;28;1230;-79
2021/07/13 01:30:25;;;;;;;;;;;;;;;22.43;54.93;94789.50;1041679;28;1026;-79
2021/07/13 01:30:57;;;;;;;;;;;;;;;22.43;54.60;94783.44;1039866;28;2821;-79
2021/07/13 01:31:27;;;;;;;;;;;;;;;22.43;54.88;94789.50;1045958;28;1072;-79
2021/07/13 01:31:57;;;;;;;;;;;;;;;22.43;54.59;94789.50;1037683;28;1906;-79
2021/07/13 01:32:28;;;;;;;;;;;;;;;22.43;54.56;94789.50;1037202;28;1155;-78
2021/07/13 01:33:06;;;;;;;;;;;;;;;22.43;54.62;94792.16;1031108;28;1177;-79
2021/07/13 01:33:36;;;;;;;;;;;;;;;22.42;54.64;94787.94;1033352;28;1032;-79
2021/07/13 01:34:27;;;;;;;;;;;;;;;22.42;54.86;94793.22;1032219;28;1251;-79
2021/07/13 01:34:59;;;;;;;;;;;;;;;22.42;54.87;94792.47;1037995;28;1197;-79
2021/07/13 01:35:31;;;;;;;;;;;;;;;22.43;54.89;94794.00;1040352;28;1170;-79
2021/07/13 01:36:09;;;;;;;;;;;;;;;22.43;54.63;94796.66;1036206;28;2521;-79
2021/07/13 01:36:58;;;;;;;;;;;;;;;22.42;54.66;94781.91;1033481;28;1461;-79
2021/07/13 01:37:28;;;;;;;;;;;;;;;22.43;54.65;94783.44;1034493;28;1014;-79
2021/07/13 01:38:00;;;;;;;;;;;;;;;22.42;54.64;94785.28;1040612;28;1128;-79
2021/07/13 01:38:32;;;;;;;;;;;;;;;22.42;54.93;94782.66;1032253;28;1307;-79
2021/07/13 01:39:03;;;;;;;;;;;;;;;22.42;54.90;94777.38;1037045;28;1168;-78
2021/07/13 01:39:33;;;;;;;;;;;;;;;22.42;54.94;94773.97;1032754;28;1228;-79
2021/07/13 01:40:05;;;;;;;;;;;;;;;22.42;54.53;94782.66;1039732;28;1267;-79
2021/07/13 01:40:35;;;;;;;;;;;;;;;22.43;54.67;94778.16;1044154;28;1723;-78
2021/07/13 01:41:07;;;;;;;;;;;;;;;22.44;54.69;94777.09;1042837;28;2097;-79
2021/07/13 01:41:37;;;;;;;;;;;;;;;22.44;54.64;94785.75;1040797;28;1415;-78
2021/07/13 01:42:08;;;;;;;;;;;;;;;22.44;54.84;94785.75;1036918;28;1101;-79
2021/07/13 01:42:39;;;;;;;;;;;;;;;22.44;54.66;94785.75;1036444;28;1113;-78
2021/07/13 01:43:10;;;;;;;;;;;;;;;22.44;54.67;94785.75;1040857;28;1124;-78
2021/07/13 01:43:40;;;;;;;;;;;;;;;22.45;54.60;94786.56;1041533;28;1906;-78
2021/07/13 01:44:11;;;;;;;;;;;;;;;22.44;54.63;94788.41;1033799;28;1406;-78
2021/07/13 01:44:41;;;;;;;;;;;;;;;22.44;54.82;94785.75;1025534;28;1201;-78
2021/07/13 01:45:11;;;;;;;;;;;;;;;22.44;54.69;94791.03;1032733;28;1715;-78
2021/07/13 01:45:42;;;;;;;;;;;;;;;22.44;54.47;94791.03;1028347;28;2246;-79
2021/07/13 01:46:12;;;;;;;;;;;;;;;22.44;54.68;94785.00;1033066;28;1339;-78
2021/07/13 01:46:42;;;;;;;;;;;;;;;22.44;54.53;94785.00;1029454;28;950;-79
2021/07/13 01:47:13;;;;;;;;;;;;;;;22.43;54.66;94789.50;1033345;28;1211;-78
2021/07/13 01:47:43;;;;;;;;;;;;;;;22.43;54.68;94784.22;1030241;28;1172;-79
2021/07/13 01:48:13;;;;;;;;;;;;;;;22.44;54.74;94785.75;1033059;28;1248;-79
2021/07/13 01:48:44;;;;;;;;;;;;;;;22.42;54.61;94782.66;1037948;28;1026;-79
2021/07/13 01:49:19;;;;;;;;;;;;;;;22.43;54.95;94784.22;1028626;28;1866;-79
2021/07/13 01:49:49;;;;;;;;;;;;;;;22.43;54.66;94784.22;1030636;28;1198;-79
2021/07/13 01:50:19;;;;;;;;;;;;;;;22.44;54.91;94787.66;1041560;28;824;-79
2021/07/13 01:50:51;;;;;;;;;;;;;;;22.44;54.70;94785.00;1032733;28;2478;-78
2021/07/13 01:51:21;;;;;;;;;;;;;;;22.44;54.68;94782.38;1032841;28;2682;-78
2021/07/13 01:51:51;;;;;;;;;;;;;;;22.44;54.49;94785.75;1039703;28;2383;-79
2021/07/13 01:52:22;;;;;;;;;;;;;;;22.44;54.84;94785.75;1029321;28;1427;-78
2021/07/13 01:52:52;;;;;;;;;;;;;;;22.44;54.61;94788.41;1029411;28;1247;-79
2021/07/13 01:53:22;;;;;;;;;;;;;;;22.44;54.64;94785.75;1026656;28;2680;-77
2021/07/13 01:53:53;;;;;;;;;;;;;;;22.44;54.55;94785.75;1028816;28;2162;-79
2021/07/13 01:54:24;;;;;;;;;;;;;;;22.44;54.76;94782.38;1025579;28;1351;-79
2021/07/13 01:54:55;;;;;;;;;;;;;;;22.45;54.68;94787.34;1027022;28;1308;-80
2021/07/13 01:55:25;;;;;;;;;;;;;;;22.44;54.89;94790.28;1033402;28;1162;-79
2021/07/13 01:55:55;;;;;;;;;;;;;;;22.43;54.62;94781.59;1024244;28;2593;-79
2021/07/13 01:56:25;;;;;;;;;;;;;;;22.44;54.84;94785.00;1027641;28;1216;-79
2021/07/13 01:56:56;;;;;;;;;;;;;;;22.44;54.67;94774.44;1033224;28;1939;-79
2021/07/13 01:57:27;;;;;;;;;;;;;;;22.45;54.58;94782.06;1037096;28;1188;-79
2021/07/13 01:57:57;;;;;;;;;;;;;;;22.45;54.89;94779.41;1034848;28;1120;-79
2021/07/13 01:58:28;;;;;;;;;;;;;;;22.44;54.63;94780.47;1034519;28;2827;-79
2021/07/13 01:58:58;;;;;;;;;;;;;;;22.45;55.07;94778.63;1035456;28;1149;-79
2021/07/13 01:59:29;;;;;;;;;;;;;;;22.45;54.70;94782.06;1033386;28;1557;-78
2021/07/13 01:59:59;;;;;;;;;;;;;;;22.44;54.73;94783.13;1039217;28;1132;-79
2021/07/13 02:00:30;;;;;;;;;;;;;;;22.44;54.97;94785.75;1029392;28;1220;-79
2021/07/13 02:01:06;;;;;;;;;;;;;;;22.44;54.93;94783.13;1022531;28;2857;-79
2021/07/13 02:01:36;;;;;;;;;;;;;;;22.44;54.93;94790.28;1025670;29;1136;-79
2021/07/13 02:02:06;;;;;;;;;;;;;;;22.45;54.75;94786.56;1029529;28;1411;-78
2021/07/13 02:02:37;;;;;;;;;;;;;;;22.44;54.81;94788.41;1030021;28;1418;-78
2021/07/13 02:03:07;;;;;;;;;;;;;;;22.45;54.88;94789.19;1033052;28;1188;-79
2021/07/13 02:03:38;;;;;;;;;;;;;;;22.44;55.03;94785.75;1033492;28;1902;-79
2021/07/13 02:04:08;;;;;;;;;;;;;;;22.44;54.88;94785.75;1034516;28;2523;-77
2021/07/13 02:04:38;;;;;;;;;;;;;;;22.43;55.08;94792.16;1031146;28;2162;-80
2021/07/13 02:05:10;;;;;;;;;;;;;;;22.43;54.84;94789.50;1024593;28;1707;-79
2021/07/13 02:05:40;;;;;;;;;;;;;;;22.43;54.98;94786.88;1025179;29;1363;-79
2021/07/13 02:06:11;;;;;;;;;;;;;;;22.43;54.66;94786.88;1023785;28;2899;-79
2021/07/13 02:06:42;;;;;;;;;;;;;;;22.43;54.77;94786.09;1025049;29;1629;-79
2021/07/13 02:07:12;;;;;;;;;;;;;;;22.43;55.10;94789.50;1037129;28;1263;-78
2021/07/13 02:07:42;;;;;;;;;;;;;;;22.42;54.99;94782.66;1038539;28;1190;-80
2021/07/13 02:08:13;;;;;;;;;;;;;;;22.43;55.11;94778.94;1039735;28;1263;-80
2021/07/13 02:08:43;;;;;;;;;;;;;;;22.43;54.75;94780.81;1041407;28;784;-80
2021/07/13 02:09:13;;;;;;;;;;;;;;;22.43;54.82;94778.16;1042458;28;1281;-79
2021/07/13 02:09:44;;;;;;;;;;;;;;;22.44;54.92;94782.38;1037319;28;1261;-79
2021/07/13 02:10:14;;;;;;;;;;;;;;;22.44;54.97;94777.09;1041269;28;862;-79
2021/07/13 02:10:44;;;;;;;;;;;;;;;22.44;54.70;94777.09;1035623;28;2531;-77
2021/07/13 02:11:15;;;;;;;;;;;;;;;22.44;54.97;94777.09;1032510;28;2161;-79
2021/07/13 02:11:45;;;;;;;;;;;;;;;22.44;54.76;94777.84;1037090;28;1532;-79
2021/07/13 02:12:17;;;;;;;;;;;;;;;22.44;54.93;94785.75;1032998;28;775;-78
2021/07/13 02:12:47;;;;;;;;;;;;;;;22.46;54.76;94782.84;1031838;28;2511;-78
2021/07/13 02:13:18;;;;;;;;;;;;;;;22.45;54.96;94784.69;1040651;28;1971;-78
2021/07/13 02:13:48;;;;;;;;;;;;;;;22.45;54.95;94783.91;1042215;28;1143;-79
2021/07/13 02:14:18;;;;;;;;;;;;;;;22.45;54.77;94789.97;1048412;28;1162;-79
2021/07/13 02:14:48;;;;;;;;;;;;;;;22.45;54.80;94789.97;1038351;28;1243;-79
2021/07/13 02:15:19;;;;;;;;;;;;;;;22.45;54.87;94782.06;1037379;28;1069;-78
2021/07/13 02:15:49;;;;;;;;;;;;;;;22.45;54.97;94782.06;1035411;28;2490;-78
2021/07/13 02:16:19;;;;;;;;;;;;;;;22.45;54.97;94792.63;1028414;28;1335;-78
2021/07/13 02:16:50;;;;;;;;;;;;;;;22.46;54.98;94791.50;1033820;28;1149;-78
2021/07/13 02:17:20;;;;;;;;;;;;;;;22.46;54.81;94788.88;1043316;28;1627;-78
2021/07/13 02:17:51;;;;;;;;;;;;;;;22.46;54.94;94783.59;1044235;28;1749;-78
2021/07/13 02:18:21;;;;;;;;;;;;;;;22.47;54.99;94785.16;1045083;28;1626;-79
2021/07/13 02:18:51;;;;;;;;;;;;;;;22.46;55.09;94782.84;1045089;28;1414;-78
2021/07/13 02:19:22;;;;;;;;;;;;;;;22.46;54.89;94777.56;1040216;28;1397;-78
2021/07/13 02:19:52;;;;;;;;;;;;;;;22.46;55.05;94775.66;1041821;28;2095;-78
2021/07/13 02:20:24;;;;;;;;;;;;;;;22.44;54.82;94785.75;1040241;28;2468;-78
2021/07/13 02:20:54;;;;;;;;;;;;;;;22.44;54.93;94777.84;1036336;28;2579;-77
2021/07/13 02:21:25;;;;;;;;;;;;;;;22.45;55.09;94776.78;1045658;28;1092;-78
2021/07/13 02:21:55;;;;;;;;;;;;;;;22.45;54.99;94776.00;1041210;28;1044;-78
2021/07/13 02:22:25;;;;;;;;;;;;;;;22.45;54.68;94782.06;1041192;28;1246;-78
2021/07/13 02:22:56;;;;;;;;;;;;;;;22.45;54.87;94776.00;1045130;28;1091;-78
2021/07/13 02:23:26;;;;;;;;;;;;;;;22.46;54.91;94780.19;1044777;28;740;-78
2021/07/13 02:23:56;;;;;;;;;;;;;;;22.47;54.65;94781.72;1045570;28;1971;-78
2021/07/13 02:24:27;;;;;;;;;;;;;;;22.48;54.97;94783.31;1045685;28;1187;-77
2021/07/13 02:24:57;;;;;;;;;;;;;;;22.46;54.80;94780.19;1045264;28;1151;-78
2021/07/13 02:25:27;;;;;;;;;;;;;;;22.46;55.09;94778.31;1045641;28;966;-78
2021/07/13 02:25:59;;;;;;;;;;;;;;;22.46;54.92;94780.19;1041476;28;2081;-78
2021/07/13 02:26:42;;;;;;;;;;;;;;;22.45;54.97;94776.78;1040924;28;1330;-77
2021/07/13 02:27:14;;;;;;;;;;;;;;;22.45;54.85;94765.41;1032863;28;1200;-77
2021/07/13 02:28:05;;;;;;;;;;;;;;;22.45;54.96;94770.69;1025099;28;1259;-78
2021/07/13 02:28:36;;;;;;;;;;;;;;;22.46;54.83;94764.34;1019649;28;1139;-79
2021/07/13 02:29:12;;;;;;;;;;;;;;;22.46;55.09;94761.72;1034906;28;1203;-77
2021/07/13 02:29:45;;;;;;;;;;;;;;;22.44;54.76;94762.00;1041400;28;2927;-78
2021/07/13 02:30:15;;;;;;;;;;;;;;;22.45;54.81;94758.28;1040814;28;2236;-78
2021/07/13 02:30:49;;;;;;;;;;;;;;;22.46;55.17;94756.44;1042254;28;1171;-78
2021/07/13 02:31:23;;;;;;;;;;;;;;;22.46;54.80;94762.47;1037242;28;2158;-78
2021/07/13 02:31:55;;;;;;;;;;;;;;;22.46;54.88;94757.19;1037313;28;1196;-79
2021/07/13 02:32:32;;;;;;;;;;;;;;;22.47;54.93;94764.03;1037355;28;800;-79
2021/07/13 02:33:05;;;;;;;;;;;;;;;22.47;55.01;94748.19;1036669;28;1105;-77
2021/07/13 02:33:54;;;;;;;;;;;;;;;22.48;54.85;94752.38;1035760;28;927;-78
2021/07/13 02:34:28;;;;;;;;;;;;;;;22.49;54.80;94753.94;1040862;28;1128;-77
2021/07/13 02:35:00;;;;;;;;;;;;;;;22.48;55.04;94749.72;1039601;28;1894;-78
2021/07/13 02:35:34;;;;;;;;;;;;;;;22.49;54.70;94750.50;1041003;28;1041;-78
2021/07/13 02:36:06;;;;;;;;;;;;;;;22.48;54.77;94747.09;1040546;28;2528;-78
2021/07/13 02:36:45;;;;;;;;;;;;;;;22.49;54.78;94747.88;1038315;28;1613;-78
2021/07/13 02:37:17;;;;;;;;;;;;;;;22.48;54.89;94748.97;1037662;28;1390;-78
2021/07/13 02:37:47;;;;;;;;;;;;;;;22.48;54.93;94744.44;1037213;28;1160;-77
2021/07/13 02:38:18;;;;;;;;;;;;;;;22.47;54.86;94742.91;1041414;28;1167;-78
2021/07/13 02:38:48;;;;;;;;;;;;;;;22.49;54.64;94750.50;1041188;28;1220;-77
2021/07/13 02:39:19;;;;;;;;;;;;;;;22.49;54.71;94739.94;1033710;28;1467;-77
2021/07/13 02:39:49;;;;;;;;;;;;;;;22.49;54.60;94747.88;1035367;28;1336;-77
2021/07/13 02:40:19;;;;;;;;;;;;;;;22.49;54.79;94746.03;1033246;28;1081;-78
2021/07/13 02:40:50;;;;;;;;;;;;;;;22.49;54.60;94739.94;1037130;28;1144;-78
2021/07/13 02:41:20;;;;;;;;;;;;;;;22.48;54.89;94739.16;1026629;28;2449;-78
2021/07/13 02:41:51;;;;;;;;;;;;;;;22.49;54.57;94735.47;1033845;28;1113;-78
2021/07/13 02:42:22;;;;;;;;;;;;;;;22.47;54.61;94742.91;1033799;28;1566;-78
2021/07/13 02:42:52;;;;;;;;;;;;;;;22.47;54.57;94748.19;1028285;28;1550;-78
2021/07/13 02:43:22;;;;;;;;;;;;;;;22.47;54.86;94750.03;1025550;28;1382;-79
2021/07/13 02:43:53;;;;;;;;;;;;;;;22.47;54.88;94753.47;1024818;28;1879;-79
2021/07/13 02:44:24;;;;;;;;;;;;;;;22.47;54.59;94758.75;1025203;28;1262;-77
2021/07/13 02:44:54;;;;;;;;;;;;;;;22.47;54.75;94758.75;1030429;28;1276;-79
2021/07/13 02:45:24;;;;;;;;;;;;;;;22.47;54.79;94753.47;1037399;28;1259;-79
2021/07/13 02:45:55;;;;;;;;;;;;;;;22.47;54.63;94753.47;1034577;28;2454;-77
2021/07/13 02:46:27;;;;;;;;;;;;;;;22.47;54.82;94753.47;1029338;28;2497;-78
2021/07/13 02:46:57;;;;;;;;;;;;;;;22.48;54.89;94746.34;1034766;28;1125;-78
2021/07/13 02:47:27;;;;;;;;;;;;;;;22.49;54.64;94751.31;1036206;28;2644;-78
2021/07/13 02:47:58;;;;;;;;;;;;;;;22.48;54.72;94744.44;1035666;28;1156;-77
2021/07/13 02:48:28;;;;;;;;;;;;;;;22.49;54.69;94740.75;1040531;28;1080;-78